Aeroporto :







RITROVATECI SU...

 
LOGIN :

Iscrizione | Disclaimer

   EN    FR    IT 

 









Sommario :    VFR   VFR Marginale   IFR   IFR Intensivo   IFR Molto Intensivo
Visibilità : 
Base nubi : 
>= 8 km
>= 3000ft
5 / 8 km
1000 / 3000 ft
1500m / 5 km
500 / 1000 ft
800 / 1500m
200 / 500 ft
< 800m
< 200 ft
Simboli :   Temporali  Nebbia  Neve Forte  Precipitazioni Forti  Vento > 20 kt






- Altitudine del aeroporto : 98 ft
- Codice IATA : JBQ


MDJB - El Higuero

ULTIMO METAR :
  • 192000Z 09006KT 9999 BKN020 29/24 Q1016 RESH

METARs OBSOLETI :
  • 191900Z 10006KT 9999 SCT018 SCT080 29/24 Q1017
  • 191800Z 00000KT 9999 SCT018 SCT080 28/22 Q1017

TAF TAF MDJB
Valido dal 19 a 18 ore il 20 a 18 ore UTC


191600Z 1918/2018 09010KT 9999 SCT020
PROB30 1918/1922 8000 -SH BKN016
BECMG 2000/2002 00000KT



MetMap, La meteo Aeronautica in un colpo d'occhio ! - Copyright ORBIFLY Dicembre 2007 - Disclaimer

ORBIFLY MET'MAP TEAM :

Programmazione e sviluppo : Alexandra Zaïnal
Concezione : Baudouin d'Aumeries
Aiuto per la programmazione : Marc-Olivier Méhu
Supporto tecnico e logistico : Manuel Goepfert
Aiuto per la traduzione : Arnaldo La Scala

Contatto : metmap@orbifly.com




FONTI E CREDITI :

   NOAA